Terminal Aerodrome Forecast
Issued by NWS

Home | Current Version | Previous Version | Text Only | Print | Product List | Glossary On
Versions: 1 2 3 4 5 6 7 8 9 10 11 12 13 14
000
FTUS42 TJSJ 020400 AAA
TAFKPK
TAF AMD
TKPK 020437Z 0205/0224 07018G30KT P6SM VCSH SCT015 SCT040
      TEMPO 0205/0209 VRB15G35KT 2SM +TSRA BKN008CB
     FM020900 13020G35KT P6SM VCTS SCT017CB BKN040
     FM021800 10014KT P6SM SCT022
      AMD NOT SKED TIL 021100=

USA.gov is the U.S. government's official web portal to all federal, state and local government web resources and services.